Weather History for KONA - December, 2012

Change the Weather History Date:

Tuesday, December 4, 2012

  Actual Average Record
Temperature  
Mean Temperature 32 °F -  
Max Temperature 41 °F 34 °F 60 °F (2001)
Min Temperature 23 °F 22 °F -4 °F (1991)
Degree Days  
Heating Degree Days 33    
Moisture  
Dew Point 21 °F    
Average Humidity 59    
Maximum Humidity 87    
Minimum Humidity 42    
Precipitation  
Precipitation 0.00 in - - ()
Sea Level Pressure  
Sea Level Pressure 30.15 in    
Wind  
Wind Speed 6 mph (NW)    
Max Wind Speed 22 mph    
Max Gust Speed 23 mph    
Visibility 10 miles    
Events      
Averages and records for this station are not official NWS values.
T = Trace of Precipitation, MM = Missing Value Source: NWS Daily Summary

Daily Weather History Graph

Daily Weather History Graph

Search for Another Location

Airport or City:

Trip Planner

Search our weather history database for the weather conditions in past years. The results will help you decide how hot, cold, wet, or windy it might be!

Date:

Astronomy

Dec. 04, 2012 Rise Set
Actual Time 7:25 AM CST 4:28 PM CST
Civil Twilight 6:52 AM CST 5:01 PM CST
Nautical Twilight 6:16 AM CST 5:37 PM CST
Astronomical Twilight 5:41 AM CST 6:12 PM CST
Moon 10:25 PM CST (12/4) 11:12 AM CST (12/4)
Length of Visible Light 10h 08m
Length of Day
9h 03m
Waning Gibbous, 69% of the Moon is Illuminated
Dec 4
Waning Gibbous
Dec 6
Last Quarter
Dec 13
New
Dec 19
First Quarter
Dec 28
Full

Hourly Weather History & Observations

Time (CST) Temp. Windchill Dew Point Humidity Pressure Visibility Wind Dir Wind Speed Gust Speed Precip Events Conditions
12:12 AM 35.6 °F - 30.2 °F 81% 29.95 in 10.0 mi Calm Calm - N/A   Clear
12:33 AM 35.6 °F - 28.4 °F 75% 29.95 in 10.0 mi Calm Calm - N/A   Clear
12:53 AM 33.8 °F - 30.2 °F 87% 29.95 in 10.0 mi Calm Calm - N/A   Clear
1:12 AM 33.8 °F - 30.2 °F 87% 29.96 in 10.0 mi Calm Calm - N/A   Clear
1:33 AM 33.8 °F - 30.2 °F 87% 29.96 in 10.0 mi Calm Calm - N/A   Clear
1:53 AM 33.8 °F - 28.4 °F 81% 29.96 in 10.0 mi Calm Calm - N/A   Clear
2:12 AM 37.4 °F - 28.4 °F 70% 29.97 in 10.0 mi Calm Calm - N/A   Clear
2:53 AM 35.6 °F 32.8 °F 26.6 °F 70% 29.98 in 10.0 mi NW 3.5 mph - N/A   Clear
3:12 AM 33.8 °F 29.6 °F 26.6 °F 75% 29.98 in 10.0 mi WNW 4.6 mph - N/A   Clear
3:33 AM 35.6 °F 29.2 °F 28.4 °F 75% 29.97 in 10.0 mi NW 8.1 mph - N/A   Clear
3:53 AM 37.4 °F 32.1 °F 28.4 °F 70% 29.98 in 10.0 mi WNW 6.9 mph - N/A   Clear
4:12 AM 37.4 °F 32.1 °F 26.6 °F 65% 29.98 in 10.0 mi NNW 6.9 mph - N/A   Clear
4:33 AM 39.2 °F 32.0 °F 26.6 °F 61% 29.99 in 10.0 mi WNW 11.5 mph 18.4 mph N/A   Clear
4:53 AM 41.0 °F 34.7 °F 26.6 °F 57% 30.00 in 10.0 mi WNW 10.4 mph - N/A   Clear
5:12 AM 41.0 °F 39.0 °F 24.8 °F 53% 30.01 in 10.0 mi West 3.5 mph - N/A   Clear
5:33 AM 37.4 °F 34.9 °F 26.6 °F 65% 30.02 in 10.0 mi West 3.5 mph - N/A   Clear
5:53 AM 37.4 °F 34.9 °F 26.6 °F 65% 30.02 in 10.0 mi West 3.5 mph - N/A   Clear
6:12 AM 37.4 °F 32.1 °F 26.6 °F 65% 30.03 in 10.0 mi WSW 6.9 mph - N/A   Clear
6:33 AM 37.4 °F 33.8 °F 24.8 °F 60% 30.05 in 10.0 mi WSW 4.6 mph - N/A   Clear
6:53 AM 37.4 °F 32.8 °F 26.6 °F 65% 30.06 in 10.0 mi West 5.8 mph - N/A   Clear
7:12 AM 37.4 °F 32.1 °F 26.6 °F 65% 30.07 in 10.0 mi West 6.9 mph - N/A   Clear
7:33 AM 37.4 °F 31.4 °F 24.8 °F 60% 30.07 in 10.0 mi West 8.1 mph - N/A   Clear
7:53 AM 37.4 °F 30.8 °F 24.8 °F 60% 30.08 in 10.0 mi WNW 9.2 mph - N/A   Clear
8:12 AM 37.4 °F 31.4 °F 24.8 °F 60% 30.09 in 10.0 mi WNW 8.1 mph 16.1 mph N/A   Clear
8:33 AM 37.4 °F 30.8 °F 24.8 °F 60% 30.10 in 10.0 mi NW 9.2 mph - N/A   Clear
8:53 AM 37.4 °F 30.3 °F 24.8 °F 60% 30.11 in 10.0 mi WNW 10.4 mph - N/A   Clear
9:13 AM 37.4 °F 29.3 °F 24.8 °F 60% 30.11 in 10.0 mi WNW 12.7 mph - N/A   Clear
9:33 AM 37.4 °F 29.8 °F 23.0 °F 56% 30.12 in 10.0 mi WNW 11.5 mph 19.6 mph N/A   Clear
9:53 AM 37.4 °F 30.3 °F 23.0 °F 56% 30.12 in 10.0 mi WNW 10.4 mph 20.7 mph N/A   Clear
10:13 AM 37.4 °F 29.3 °F 23.0 °F 56% 30.14 in 10.0 mi NW 12.7 mph 19.6 mph N/A   Clear
10:33 AM 37.4 °F 28.9 °F 23.0 °F 56% 30.14 in 10.0 mi WNW 13.8 mph 19.6 mph N/A   Clear
10:53 AM 39.2 °F 31.6 °F 23.0 °F 52% 30.13 in 10.0 mi WNW 12.7 mph 18.4 mph N/A   Clear
11:13 AM 39.2 °F 32.0 °F 21.2 °F 49% 30.13 in 10.0 mi WNW 11.5 mph 20.7 mph N/A   Clear
11:33 AM 39.2 °F 31.6 °F 21.2 °F 49% 30.13 in 10.0 mi WNW 12.7 mph 20.7 mph N/A   Clear
12:13 PM 39.2 °F 31.6 °F 19.4 °F 45% 30.13 in 10.0 mi West 12.7 mph 19.6 mph N/A   Clear
12:33 PM 41.0 °F 33.1 °F 19.4 °F 42% 30.14 in 10.0 mi WNW 15.0 mph 19.6 mph N/A   Clear
12:52 PM 41.0 °F 33.5 °F 19.4 °F 42% 30.14 in 10.0 mi WNW 13.8 mph 18.4 mph N/A   Clear
1:13 PM 41.0 °F 32.8 °F 19.4 °F 42% 30.14 in 10.0 mi NW 16.1 mph 23.0 mph N/A   Clear
1:33 PM 41.0 °F 34.3 °F 19.4 °F 42% 30.14 in 10.0 mi WNW 11.5 mph 16.1 mph N/A   Clear
1:52 PM 39.2 °F 29.0 °F 17.6 °F 42% 30.15 in 10.0 mi NW 21.9 mph - N/A   Clear
2:13 PM 39.2 °F 29.8 °F 17.6 °F 42% 30.16 in 10.0 mi NW 18.4 mph - N/A   Clear
2:33 PM 39.2 °F 30.5 °F 17.6 °F 42% 30.17 in 10.0 mi NW 16.1 mph 21.9 mph N/A   Clear
2:52 PM 37.4 °F 28.5 °F 17.6 °F 45% 30.17 in 10.0 mi NW 15.0 mph - N/A   Clear
3:13 PM 37.4 °F 27.8 °F 17.6 °F 45% 30.19 in 10.0 mi NW 17.3 mph - N/A   Clear
3:33 PM 37.4 °F 29.3 °F 17.6 °F 45% 30.20 in 10.0 mi WNW 12.7 mph - N/A   Clear
3:52 PM 37.4 °F 29.8 °F 19.4 °F 48% 30.21 in 10.0 mi NW 11.5 mph - N/A   Clear
4:13 PM 33.8 °F 26.4 °F 19.4 °F 56% 30.22 in 10.0 mi WNW 9.2 mph 16.1 mph N/A   Clear
4:52 PM 32.0 °F 23.6 °F 19.4 °F 60% 30.24 in 10.0 mi NNW 10.4 mph - N/A   Clear
5:13 PM 32.0 °F 24.2 °F 19.4 °F 60% 30.25 in 10.0 mi NW 9.2 mph - N/A   Clear
5:32 PM 32.0 °F 23.0 °F 19.4 °F 60% 30.26 in 10.0 mi NNW 11.5 mph - N/A   Clear
5:53 PM 32.0 °F 22.5 °F 17.6 °F 55% 30.27 in 10.0 mi NNW 12.7 mph 17.3 mph N/A   Clear
6:13 PM 32.0 °F 23.0 °F 17.6 °F 55% 30.28 in 10.0 mi NNW 11.5 mph 17.3 mph N/A   Clear
6:32 PM 30.2 °F 22.6 °F 17.6 °F 60% 30.29 in 10.0 mi NNW 8.1 mph 17.3 mph N/A   Clear
6:53 PM 30.2 °F 24.3 °F 17.6 °F 60% 30.29 in 10.0 mi NW 5.8 mph - N/A   Clear
7:13 PM 28.4 °F 19.7 °F 15.8 °F 59% 30.29 in 10.0 mi NNW 9.2 mph - N/A   Clear
7:32 PM 28.4 °F 19.1 °F 14.0 °F 55% 30.30 in 10.0 mi NNW 10.4 mph - N/A   Clear
7:53 PM 28.4 °F 19.7 °F 14.0 °F 55% 30.31 in 10.0 mi NNW 9.2 mph - N/A   Clear
8:13 PM 28.4 °F 22.2 °F 15.8 °F 59% 30.32 in 10.0 mi North 5.8 mph - N/A   Clear
8:33 PM 28.4 °F 22.2 °F 14.0 °F 55% 30.31 in 10.0 mi North 5.8 mph - N/A   Clear
8:53 PM 28.4 °F 19.7 °F 14.0 °F 55% 30.33 in 10.0 mi NNW 9.2 mph - N/A   Clear
9:13 PM 28.4 °F 19.7 °F 14.0 °F 55% 30.34 in 10.0 mi NNW 9.2 mph - N/A   Clear
9:33 PM 26.6 °F 20.0 °F 12.2 °F 55% 30.34 in 10.0 mi NNW 5.8 mph - N/A   Clear
9:53 PM 26.6 °F 19.1 °F 12.2 °F 55% 30.35 in 10.0 mi North 6.9 mph - N/A   Clear
10:13 PM 26.6 °F 19.1 °F 12.2 °F 55% 30.37 in 10.0 mi NNW 6.9 mph - N/A   Clear
10:33 PM 26.6 °F 21.2 °F 12.2 °F 55% 30.37 in 10.0 mi NNW 4.6 mph - N/A   Clear
10:53 PM 23.0 °F 18.4 °F 12.2 °F 63% 30.37 in 10.0 mi North 3.5 mph - N/A   Clear
11:13 PM 23.0 °F 15.8 °F 12.2 °F 63% 30.39 in 10.0 mi North 5.8 mph - N/A   Clear
11:33 PM 24.8 °F 20.5 °F 12.2 °F 59% 30.40 in 10.0 mi North 3.5 mph - N/A   Clear
11:53 PM 24.8 °F 20.5 °F 12.2 °F 59% 30.41 in 10.0 mi North 3.5 mph - N/A   Clear